Terminal Aerodrome Forecast
Issued by NWS

Home | Current Version | Previous Version | Text Only | Print | Product List | Glossary On
Versions: 1 2 3 4 5 6 7 8 9 10 11 12 13 14 15 16 17 18 19 20 21 22 23 24 25 26 27 28 29 30 31 32 33 34 35 36 37
000
FTUS41 KBOX 282321
TAFACK
TAF
KACK 282321Z 2900/2924 18007KT P6SM SCT008
     FM290300 18005KT 1/2SM FG BKN003
     FM291200 16005KT P6SM VCSH OVC003
     FM291400 14010KT 2SM -RA VCTS OVC003CB
     FM291700 13010KT 2SM -RA VCTS OVC050CB
     FM292200 11011G18KT 3SM -SHRA BR VCTS OVC050CB=

USA.gov is the U.S. government's official web portal to all federal, state and local government web resources and services.